createdAt,value
2023-02-26T00:01:16.701Z,16.98
2023-02-26T00:06:19.874Z,13.40
2023-02-26T00:11:22.705Z,18.83
2023-02-26T00:16:35.200Z,13.77
2023-02-26T00:21:37.810Z,11.85
2023-02-26T00:26:40.079Z,17.73
2023-02-26T00:31:42.658Z,17.40
2023-02-26T00:36:48.440Z,16.05
2023-02-26T00:41:50.857Z,12.00
2023-02-26T00:47:08.585Z,9.15
2023-02-26T00:52:19.202Z,17.63
2023-02-26T01:02:23.590Z,10.93
2023-02-26T01:07:28.084Z,10.65
2023-02-26T01:12:30.607Z,13.52
2023-02-26T01:17:51.536Z,17.45
2023-02-26T01:23:11.805Z,12.90
2023-02-26T01:28:14.470Z,9.70
2023-02-26T01:33:25.743Z,9.32
2023-02-26T01:43:54.167Z,17.52
2023-02-26T01:48:57.699Z,10.65
2023-02-26T01:54:00.180Z,14.77
2023-02-26T01:59:05.932Z,10.68
2023-02-26T02:04:12.882Z,14.25
2023-02-26T02:09:15.080Z,13.02
2023-02-26T02:14:38.385Z,10.05
2023-02-26T02:20:06.235Z,10.50
2023-02-26T02:25:08.493Z,8.27
2023-02-26T02:30:36.912Z,9.32
2023-02-26T02:35:44.268Z,9.63
2023-02-26T02:40:54.841Z,11.35
2023-02-26T02:46:23.562Z,4.20
2023-02-26T02:51:41.159Z,8.75
2023-02-26T02:56:56.368Z,4.88
2023-02-26T03:02:11.726Z,10.65
2023-02-26T03:07:14.177Z,8.10
2023-02-26T03:12:16.263Z,7.43
2023-02-26T03:18:01.986Z,7.93
2023-02-26T03:23:12.160Z,9.80
2023-02-26T03:28:48.445Z,11.15
2023-02-26T03:33:59.555Z,14.27
2023-02-26T03:39:08.393Z,5.95
2023-02-26T03:44:39.046Z,6.15
2023-02-26T03:49:45.880Z,10.43
2023-02-26T03:55:02.134Z,10.57
2023-02-26T04:00:31.647Z,9.35
2023-02-26T04:05:39.370Z,10.48
2023-02-26T04:10:45.427Z,10.13
2023-02-26T04:15:48.318Z,4.93
2023-02-26T04:20:50.448Z,7.13
2023-02-26T04:25:52.634Z,4.35
2023-02-26T04:30:54.942Z,11.43
2023-02-26T04:35:57.687Z,7.95
2023-02-26T04:41:00.011Z,9.23
2023-02-26T04:46:02.312Z,7.25
2023-02-26T04:51:06.058Z,8.15
2023-02-26T04:56:09.248Z,4.63
2023-02-26T05:01:13.603Z,10.90
2023-02-26T05:06:15.799Z,7.85
2023-02-26T05:11:17.861Z,5.38
2023-02-26T05:16:20.025Z,5.03
2023-02-26T05:21:24.588Z,14.02
2023-02-26T05:26:28.400Z,8.30
2023-02-26T05:31:30.612Z,11.18
2023-02-26T05:36:33.276Z,6.85
2023-02-26T05:41:35.358Z,7.07
2023-02-26T05:46:37.489Z,5.10
2023-02-26T05:51:39.718Z,3.75
2023-02-26T05:56:41.775Z,5.15
2023-02-26T06:01:44.090Z,6.22
2023-02-26T06:06:46.183Z,7.32
2023-02-26T06:11:48.311Z,7.32
2023-02-26T06:16:50.488Z,5.30
2023-02-26T06:21:52.537Z,3.03
2023-02-26T06:26:54.786Z,7.65
2023-02-26T06:31:56.862Z,7.03
2023-02-26T06:36:58.977Z,6.70
2023-02-26T06:42:01.078Z,4.70
2023-02-26T06:47:03.328Z,9.50
2023-02-26T06:52:05.365Z,6.53
2023-02-26T06:57:07.435Z,4.38
2023-02-26T07:02:17.074Z,5.47
2023-02-26T07:07:19.462Z,10.10
2023-02-26T07:12:21.492Z,4.20
2023-02-26T07:17:23.572Z,7.38
2023-02-26T07:22:25.764Z,7.78
2023-02-26T07:27:29.885Z,5.35
2023-02-26T07:32:32.320Z,5.38
2023-02-26T07:37:34.524Z,5.60
2023-02-26T07:42:36.860Z,5.35
2023-02-26T07:47:38.954Z,5.68
2023-02-26T07:52:41.735Z,9.20
2023-02-26T07:57:43.883Z,3.80
2023-02-26T08:02:46.004Z,5.53
2023-02-26T08:07:48.009Z,3.50
2023-02-26T08:12:50.061Z,8.65
2023-02-26T08:17:53.591Z,7.65
2023-02-26T08:22:55.682Z,4.40
2023-02-26T08:27:58.578Z,8.25
2023-02-26T08:33:01.061Z,7.45
2023-02-26T08:38:03.136Z,6.07
2023-02-26T08:43:05.149Z,5.88
2023-02-26T08:48:08.127Z,7.15
2023-02-26T08:53:11.366Z,4.85
2023-02-26T08:58:13.723Z,6.13
2023-02-26T09:03:16.177Z,9.90
2023-02-26T09:08:20.533Z,3.67
2023-02-26T09:13:22.778Z,5.68
2023-02-26T09:18:24.984Z,4.53
2023-02-26T09:23:27.294Z,3.80
2023-02-26T09:28:29.494Z,7.15
2023-02-26T09:33:31.561Z,8.95
2023-02-26T09:38:35.821Z,6.38
2023-02-26T09:44:04.358Z,3.85
2023-02-26T09:49:27.117Z,7.13
2023-02-26T09:54:33.924Z,5.00
2023-02-26T09:59:36.415Z,3.05
2023-02-26T10:04:55.308Z,4.32
2023-02-26T10:10:11.329Z,4.90
2023-02-26T10:15:32.014Z,7.82
2023-02-26T10:20:56.024Z,4.35
2023-02-26T10:26:16.629Z,7.60
2023-02-26T10:31:18.843Z,3.35
2023-02-26T10:36:38.700Z,4.60
2023-02-26T10:41:41.645Z,5.50
2023-02-26T10:46:52.888Z,6.47
2023-02-26T10:51:57.531Z,5.72
2023-02-26T10:56:59.677Z,3.03
2023-02-26T11:02:02.010Z,4.03
2023-02-26T11:07:06.147Z,2.90
2023-02-26T11:12:11.330Z,6.88
2023-02-26T11:17:27.921Z,2.92
2023-02-26T11:22:33.707Z,5.93
2023-02-26T11:27:38.321Z,1.55
2023-02-26T11:32:40.438Z,5.80
2023-02-26T11:37:48.730Z,2.47
2023-02-26T11:42:55.037Z,3.40
2023-02-26T11:48:05.087Z,3.20
2023-02-26T11:53:16.822Z,5.13
2023-02-26T11:58:23.749Z,3.75
2023-02-26T12:03:34.443Z,3.20
2023-02-26T12:08:38.774Z,4.38
2023-02-26T12:14:03.102Z,5.35
2023-02-26T12:19:36.624Z,5.40
2023-02-26T12:24:50.533Z,4.90
2023-02-26T12:30:29.770Z,3.17
2023-02-26T12:35:37.714Z,5.65
2023-02-26T12:40:56.342Z,3.40
2023-02-26T12:46:19.360Z,3.67
2023-02-26T12:51:27.897Z,2.92
2023-02-26T12:56:51.360Z,4.80
2023-02-26T13:02:11.709Z,2.13
2023-02-26T13:07:35.025Z,3.90
2023-02-26T13:12:43.571Z,4.55
2023-02-26T13:17:48.216Z,4.35
2023-02-26T13:22:55.451Z,2.35
2023-02-26T13:28:01.015Z,3.25
2023-02-26T13:33:04.396Z,3.05
2023-02-26T13:38:25.171Z,3.95
2023-02-26T13:43:46.710Z,2.27
2023-02-26T13:48:57.904Z,2.63
2023-02-26T13:54:05.439Z,4.75
2023-02-26T13:59:13.528Z,3.97
2023-02-26T14:04:19.043Z,4.70
2023-02-26T14:09:23.854Z,3.30
2023-02-26T14:15:04.955Z,4.18
2023-02-26T14:20:09.668Z,1.77
2023-02-26T14:25:34.959Z,2.55
2023-02-26T14:30:47.156Z,5.18
2023-02-26T14:35:51.886Z,2.85
2023-02-26T14:41:04.798Z,3.22
2023-02-26T14:46:09.330Z,3.47
2023-02-26T14:51:32.497Z,2.50
2023-02-26T14:56:53.310Z,2.47
2023-02-26T15:02:09.852Z,2.80
2023-02-26T15:07:30.865Z,2.38
2023-02-26T15:12:40.140Z,3.67
2023-02-26T15:18:00.681Z,2.42
2023-02-26T15:23:27.153Z,1.90
2023-02-26T15:28:32.985Z,3.47
2023-02-26T15:33:35.449Z,2.38
2023-02-26T15:38:42.885Z,3.03
2023-02-26T15:43:50.940Z,3.20
2023-02-26T15:48:59.505Z,2.53
2023-02-26T15:54:06.116Z,2.85
2023-02-26T15:59:17.149Z,2.85
2023-02-26T16:09:27.981Z,4.05
2023-02-26T16:14:35.495Z,4.68
2023-02-26T16:19:43.637Z,2.72
2023-02-26T16:24:51.011Z,5.22
2023-02-26T16:29:57.061Z,4.57
2023-02-26T16:35:11.457Z,3.92
2023-02-26T16:40:25.774Z,3.03
2023-02-26T16:45:36.684Z,3.40
2023-02-26T16:50:38.792Z,5.00
2023-02-26T16:55:42.537Z,2.92
2023-02-26T17:00:46.763Z,4.20
2023-02-26T17:06:06.595Z,2.85
2023-02-26T17:11:18.092Z,4.22
2023-02-26T17:16:22.594Z,5.13
2023-02-26T17:21:25.151Z,7.95
2023-02-26T17:26:27.565Z,5.63
2023-02-26T17:31:29.817Z,6.40
2023-02-26T17:36:31.971Z,8.00
2023-02-26T17:41:34.290Z,3.63
2023-02-26T17:46:36.329Z,4.28
2023-02-26T17:51:38.476Z,6.50
2023-02-26T17:56:42.174Z,10.25
2023-02-26T18:01:44.354Z,6.93
2023-02-26T18:06:46.620Z,5.55
2023-02-26T18:11:49.065Z,4.82
2023-02-26T18:16:51.377Z,5.63
2023-02-26T18:21:53.530Z,5.57
2023-02-26T18:26:55.546Z,6.80
2023-02-26T18:32:00.653Z,5.10
2023-02-26T18:37:04.443Z,7.95
2023-02-26T18:42:06.688Z,7.55
2023-02-26T18:47:10.264Z,6.57
2023-02-26T18:52:12.907Z,5.55
2023-02-26T18:57:15.274Z,6.72
2023-02-26T19:02:17.404Z,5.72
2023-02-26T19:07:19.670Z,8.15
2023-02-26T19:12:23.168Z,7.47
2023-02-26T19:17:25.268Z,6.47
2023-02-26T19:22:27.373Z,5.47
2023-02-26T19:27:29.410Z,10.80
2023-02-26T19:32:31.915Z,6.95
2023-02-26T19:37:34.104Z,7.85
2023-02-26T19:42:36.436Z,8.73
2023-02-26T19:47:38.750Z,10.75
2023-02-26T19:52:41.167Z,16.40
2023-02-26T19:57:43.431Z,9.20
2023-02-26T20:02:45.845Z,6.15
2023-02-26T20:07:48.207Z,8.25
2023-02-26T20:12:50.365Z,5.50
2023-02-26T20:17:52.376Z,7.43
2023-02-26T20:22:54.807Z,4.53
2023-02-26T20:27:57.016Z,5.28
2023-02-26T20:32:59.177Z,9.60
2023-02-26T20:38:02.040Z,5.90
2023-02-26T20:43:04.382Z,12.85
2023-02-26T20:48:07.573Z,10.38
2023-02-26T20:53:09.810Z,9.63
2023-02-26T20:58:11.851Z,8.60
2023-02-26T21:03:13.941Z,7.22
2023-02-26T21:08:15.959Z,6.78
2023-02-26T21:13:18.420Z,7.55
2023-02-26T21:18:20.514Z,7.10
2023-02-26T21:23:22.604Z,7.82
2023-02-26T21:28:25.096Z,15.07
2023-02-26T21:33:27.177Z,9.65
2023-02-26T21:38:29.208Z,8.48
2023-02-26T21:43:31.337Z,11.23
2023-02-26T21:48:33.404Z,15.02
2023-02-26T21:53:35.370Z,11.55
2023-02-26T21:58:37.350Z,7.97
2023-02-26T22:03:39.792Z,9.02
2023-02-26T22:08:41.942Z,9.25
2023-02-26T22:13:44.078Z,10.90
2023-02-26T22:18:46.115Z,9.68
2023-02-26T22:23:48.113Z,7.38
2023-02-26T22:28:50.154Z,9.95
2023-02-26T22:33:52.326Z,6.60
2023-02-26T22:38:54.572Z,7.35
2023-02-26T22:43:56.758Z,7.00
2023-02-26T22:48:59.001Z,6.90
2023-02-26T22:54:01.614Z,10.25
2023-02-26T22:59:03.719Z,7.78
2023-02-26T23:04:05.802Z,5.13
2023-02-26T23:09:07.969Z,11.02
2023-02-26T23:14:10.138Z,10.13
2023-02-26T23:19:12.517Z,7.03
2023-02-26T23:24:14.692Z,6.63
2023-02-26T23:29:16.773Z,10.35
2023-02-26T23:34:19.051Z,7.22
2023-02-26T23:39:21.186Z,5.57
2023-02-26T23:44:23.605Z,4.72
2023-02-26T23:49:25.662Z,7.25
2023-02-26T23:54:27.716Z,5.60
2023-02-26T23:59:29.806Z,6.25
